createdAt,value
2018-07-01T00:00:39.162Z,41.50
2018-07-01T00:03:22.113Z,41.58
2018-07-01T00:05:53.362Z,41.96
2018-07-01T00:08:23.071Z,42.58
2018-07-01T00:10:57.120Z,44.63
2018-07-01T00:13:26.672Z,45.20
2018-07-01T00:15:56.502Z,44.39
2018-07-01T00:20:57.836Z,44.56
2018-07-01T00:23:27.431Z,45.75
2018-07-01T00:25:56.907Z,45.92
2018-07-01T00:28:28.965Z,45.67
2018-07-01T00:30:58.506Z,46.57
2018-07-01T00:33:28.577Z,46.89
2018-07-01T00:35:58.131Z,46.49
2018-07-01T00:38:27.768Z,47.08
2018-07-01T00:41:31.408Z,47.92
2018-07-01T00:44:02.038Z,45.66
2018-07-01T00:46:32.186Z,46.21
2018-07-01T00:49:03.530Z,47.29
2018-07-01T00:51:33.221Z,46.35
2018-07-01T00:54:03.606Z,44.60
2018-07-01T00:56:33.294Z,44.66
2018-07-01T00:59:03.379Z,43.58
2018-07-01T01:01:33.835Z,43.71
2018-07-01T01:04:03.572Z,42.84
2018-07-01T01:06:33.151Z,43.15
2018-07-01T01:09:02.787Z,44.76
2018-07-01T01:11:32.393Z,43.62
2018-07-01T01:14:03.532Z,43.77
2018-07-01T01:16:33.604Z,44.73
2018-07-01T01:19:03.185Z,45.09
2018-07-01T01:21:32.763Z,44.69
2018-07-01T01:24:02.677Z,44.56
2018-07-01T01:26:32.596Z,44.32
2018-07-01T01:29:02.534Z,44.71
2018-07-01T01:31:32.224Z,45.71
2018-07-01T01:34:01.782Z,47.09
2018-07-01T01:36:33.774Z,45.66
2018-07-01T01:39:05.723Z,45.77
2018-07-01T01:41:43.235Z,44.80
2018-07-01T01:44:27.848Z,46.42
2018-07-01T01:47:07.360Z,46.57
2018-07-01T01:49:42.034Z,47.38
2018-07-01T01:52:19.371Z,48.38
2018-07-01T01:54:56.108Z,48.77
2018-07-01T01:57:36.640Z,46.71
2018-07-01T02:00:10.888Z,45.90
2018-07-01T02:02:47.229Z,47.38
2018-07-01T02:05:28.707Z,46.83
2018-07-01T02:08:02.601Z,47.84
2018-07-01T02:10:32.155Z,48.21
2018-07-01T02:13:02.085Z,49.34
2018-07-01T02:15:39.550Z,49.25
2018-07-01T02:18:09.166Z,46.72
2018-07-01T02:20:41.923Z,47.64
2018-07-01T02:23:15.798Z,47.80
2018-07-01T02:25:45.731Z,47.63
2018-07-01T02:28:15.442Z,48.47
2018-07-01T02:30:45.215Z,48.37
2018-07-01T02:33:14.907Z,48.38
2018-07-01T02:35:45.274Z,48.40
2018-07-01T02:38:20.176Z,49.02
2018-07-01T02:40:49.892Z,49.95
2018-07-01T02:43:32.019Z,49.50
2018-07-01T02:46:02.307Z,49.46
2018-07-01T02:48:32.216Z,49.39
2018-07-01T02:51:02.576Z,49.31
2018-07-01T02:53:32.335Z,50.67
2018-07-01T02:56:01.971Z,51.11
2018-07-01T02:58:44.221Z,52.58
2018-07-01T03:01:15.829Z,51.94
2018-07-01T03:03:45.766Z,51.46
2018-07-01T03:06:15.661Z,52.05
2018-07-01T03:09:01.391Z,52.35
2018-07-01T03:11:31.262Z,52.63
2018-07-01T03:14:01.012Z,52.40
2018-07-01T03:16:30.551Z,54.38
2018-07-01T03:19:00.613Z,52.29
2018-07-01T03:21:30.260Z,53.53
2018-07-01T03:24:41.662Z,52.61
2018-07-01T03:27:14.368Z,53.80
2018-07-01T03:29:44.012Z,53.62
2018-07-01T03:32:14.151Z,54.66
2018-07-01T03:34:43.720Z,53.91
2018-07-01T03:37:13.882Z,53.69
2018-07-01T03:39:43.458Z,54.24
2018-07-01T03:42:12.966Z,55.27
2018-07-01T03:44:42.536Z,56.59
2018-07-01T03:47:12.684Z,54.68
2018-07-01T03:49:42.394Z,54.72
2018-07-01T03:52:14.788Z,55.06
2018-07-01T03:54:44.604Z,55.78
2018-07-01T03:57:15.006Z,54.71
2018-07-01T03:59:44.487Z,54.82
2018-07-01T04:02:16.309Z,55.04
2018-07-01T04:04:46.179Z,55.90
2018-07-01T04:07:33.680Z,56.81
2018-07-01T04:10:03.320Z,56.80
2018-07-01T04:12:33.144Z,56.13
2018-07-01T04:15:02.779Z,53.38
2018-07-01T04:17:33.078Z,53.55
2018-07-01T04:20:02.534Z,54.21
2018-07-01T04:22:32.079Z,54.85
2018-07-01T04:25:02.255Z,53.52
2018-07-01T04:27:33.438Z,54.29
2018-07-01T04:30:02.988Z,51.81
2018-07-01T04:32:32.731Z,51.22
2018-07-01T04:35:02.923Z,49.35
2018-07-01T04:37:32.456Z,51.70
2018-07-01T04:40:01.994Z,51.16
2018-07-01T04:42:33.982Z,52.12
2018-07-01T04:45:03.687Z,51.90
2018-07-01T04:47:33.531Z,50.63
2018-07-01T04:50:05.874Z,49.93
2018-07-01T04:52:35.557Z,48.88
2018-07-01T04:55:05.174Z,48.60
2018-07-01T04:57:41.604Z,49.82
2018-07-01T05:00:13.004Z,50.56
2018-07-01T05:02:44.416Z,49.02
2018-07-01T05:05:23.782Z,48.36
2018-07-01T05:07:59.956Z,48.41
2018-07-01T05:10:33.868Z,46.47
2018-07-01T05:13:08.005Z,46.54
2018-07-01T05:15:37.699Z,46.21
2018-07-01T05:18:07.418Z,46.73
2018-07-01T05:20:37.405Z,46.30
2018-07-01T05:23:06.978Z,46.39
2018-07-01T05:25:36.582Z,46.67
2018-07-01T05:28:06.294Z,45.45
2018-07-01T05:30:36.048Z,45.84
2018-07-01T05:33:05.700Z,45.31
2018-07-01T05:35:45.979Z,45.51
2018-07-01T05:38:15.496Z,44.05
2018-07-01T05:40:45.335Z,45.12
2018-07-01T05:43:15.093Z,44.69
2018-07-01T05:45:45.062Z,45.26
2018-07-01T05:48:15.188Z,43.98
2018-07-01T05:50:45.083Z,43.92
2018-07-01T05:53:14.893Z,43.10
2018-07-01T05:55:44.439Z,43.97
2018-07-01T05:58:13.986Z,43.43
2018-07-01T06:00:46.049Z,43.90
2018-07-01T06:03:15.729Z,43.63
2018-07-01T06:05:45.263Z,43.56
2018-07-01T06:08:15.069Z,43.44
2018-07-01T06:10:44.649Z,44.42
2018-07-01T06:13:14.286Z,44.55
2018-07-01T06:15:44.295Z,44.46
2018-07-01T06:18:13.847Z,44.89
2018-07-01T06:20:43.468Z,44.28
2018-07-01T06:23:12.896Z,42.84
2018-07-01T06:25:42.831Z,43.77
2018-07-01T06:28:12.273Z,42.99
2018-07-01T06:30:41.815Z,42.92
2018-07-01T06:33:11.352Z,43.85
2018-07-01T06:38:35.785Z,42.56
2018-07-01T06:41:05.296Z,42.67
2018-07-01T06:43:34.959Z,41.37
2018-07-01T06:46:04.634Z,41.38
2018-07-01T06:48:36.110Z,41.12
2018-07-01T06:51:13.046Z,41.21
2018-07-01T06:53:42.553Z,42.48
2018-07-01T06:56:12.705Z,41.20
2018-07-01T06:58:42.743Z,40.90
2018-07-01T07:01:12.581Z,40.02
2018-07-01T07:03:42.122Z,38.90
2018-07-01T07:06:22.005Z,39.64
2018-07-01T07:08:51.774Z,39.65
2018-07-01T07:11:23.745Z,39.61
2018-07-01T07:13:54.360Z,40.75
2018-07-01T07:16:24.269Z,39.84
2018-07-01T07:18:55.249Z,39.88
2018-07-01T07:21:24.852Z,39.08
2018-07-01T07:23:54.885Z,39.75
2018-07-01T07:26:25.063Z,39.62
2018-07-01T07:29:04.362Z,39.51
2018-07-01T07:31:35.556Z,38.75
2018-07-01T07:34:05.243Z,38.29
2018-07-01T07:36:35.307Z,37.94
2018-07-01T07:39:08.589Z,37.33
2018-07-01T07:41:40.402Z,38.13
2018-07-01T07:44:10.439Z,37.41
2018-07-01T07:46:43.227Z,37.50
2018-07-01T07:49:13.540Z,37.32
2018-07-01T07:51:44.206Z,37.15
2018-07-01T07:54:14.128Z,36.30
2018-07-01T07:56:44.177Z,36.41
2018-07-01T07:59:14.610Z,35.90
2018-07-01T08:04:48.283Z,37.24
2018-07-01T08:07:18.067Z,36.23
2018-07-01T08:09:47.689Z,36.35
2018-07-01T08:12:19.910Z,36.85
2018-07-01T08:14:50.642Z,35.49
2018-07-01T08:17:20.710Z,35.85
2018-07-01T08:20:00.224Z,35.00
2018-07-01T08:22:29.826Z,35.32
2018-07-01T08:25:03.604Z,34.28
2018-07-01T08:27:33.512Z,33.63
2018-07-01T08:30:05.974Z,34.50
2018-07-01T08:32:36.676Z,33.39
2018-07-01T08:35:07.056Z,33.42
2018-07-01T08:37:37.159Z,33.70
2018-07-01T08:40:07.064Z,33.75
2018-07-01T08:42:38.878Z,32.79
2018-07-01T08:45:09.696Z,32.04
2018-07-01T08:47:39.617Z,29.96
2018-07-01T08:50:09.527Z,29.84
2018-07-01T08:52:40.461Z,29.03
2018-07-01T08:55:10.926Z,27.89
2018-07-01T08:57:42.379Z,27.02
2018-07-01T09:00:21.253Z,26.18
2018-07-01T09:03:05.840Z,27.24
2018-07-01T09:08:29.817Z,26.21
2018-07-01T09:11:12.992Z,25.99
2018-07-01T09:13:43.079Z,25.60
2018-07-01T09:16:20.699Z,25.68
2018-07-01T09:19:01.080Z,25.74
2018-07-01T09:21:36.973Z,24.95
2018-07-01T09:24:07.962Z,22.80
2018-07-01T09:29:38.622Z,22.76
2018-07-01T09:32:08.178Z,21.39
2018-07-01T09:34:40.595Z,21.15
2018-07-01T09:37:10.905Z,21.30
2018-07-01T09:39:47.025Z,22.75
2018-07-01T09:42:35.721Z,22.23
2018-07-01T09:45:20.572Z,21.25
2018-07-01T09:47:51.902Z,21.11
2018-07-01T09:56:13.966Z,20.19
2018-07-01T09:58:45.167Z,21.85
2018-07-01T10:01:19.890Z,19.73
2018-07-01T10:03:53.846Z,19.93
2018-07-01T10:06:27.701Z,20.28
2018-07-01T10:09:00.131Z,19.37
2018-07-01T10:11:36.210Z,18.87
2018-07-01T10:14:24.005Z,18.49
2018-07-01T10:16:54.880Z,20.40
2018-07-01T10:19:26.070Z,20.14
2018-07-01T10:21:57.574Z,19.82
2018-07-01T10:24:29.552Z,19.96
2018-07-01T10:27:07.263Z,19.06
2018-07-01T10:29:37.679Z,17.52
2018-07-01T10:32:07.978Z,17.32
2018-07-01T10:34:37.569Z,17.42
2018-07-01T10:37:07.378Z,18.87
2018-07-01T10:39:38.027Z,20.44
2018-07-01T10:42:08.764Z,19.81
2018-07-01T10:44:38.806Z,19.24
2018-07-01T10:47:09.432Z,19.37
2018-07-01T10:49:39.395Z,19.80
2018-07-01T10:52:11.396Z,20.87
2018-07-01T10:54:41.362Z,20.07
2018-07-01T10:57:11.346Z,20.19
2018-07-01T10:59:41.747Z,19.07
2018-07-01T11:02:12.887Z,18.78
2018-07-01T11:04:42.778Z,19.46
2018-07-01T11:07:12.567Z,19.83
2018-07-01T11:09:44.354Z,20.05
2018-07-01T11:12:37.949Z,21.06
2018-07-01T11:15:14.011Z,21.29
2018-07-01T11:17:57.743Z,20.69
2018-07-01T11:20:33.733Z,22.19
2018-07-01T11:23:13.636Z,22.13
2018-07-01T11:25:57.266Z,21.94
2018-07-01T11:28:27.433Z,22.27
2018-07-01T11:31:10.025Z,22.70
2018-07-01T11:33:49.171Z,21.84
2018-07-01T11:36:19.613Z,21.42
2018-07-01T11:38:57.366Z,19.23
2018-07-01T11:41:28.261Z,17.60
2018-07-01T11:43:58.264Z,19.30
2018-07-01T11:46:30.932Z,18.19
2018-07-01T11:49:11.792Z,16.57
2018-07-01T11:51:44.040Z,15.39
2018-07-01T11:54:14.322Z,15.08
2018-07-01T11:56:44.675Z,14.58
2018-07-01T11:59:14.603Z,14.10
2018-07-01T12:01:48.035Z,14.44
2018-07-01T12:04:21.533Z,15.32
2018-07-01T12:06:51.781Z,13.45
2018-07-01T12:09:22.099Z,14.27
2018-07-01T12:11:52.552Z,14.27
2018-07-01T12:14:22.342Z,13.41
2018-07-01T12:16:51.965Z,13.20
2018-07-01T12:19:22.824Z,14.31
2018-07-01T12:21:57.298Z,13.27
2018-07-01T12:24:27.698Z,14.42
2018-07-01T12:27:01.179Z,13.42
2018-07-01T12:29:35.461Z,13.19
2018-07-01T12:32:05.609Z,12.60
2018-07-01T12:34:43.509Z,13.17
2018-07-01T12:37:20.310Z,13.70
2018-07-01T12:39:51.176Z,13.73
2018-07-01T12:42:23.168Z,13.61
2018-07-01T12:44:54.681Z,13.19
2018-07-01T12:47:31.290Z,14.21
2018-07-01T12:50:01.911Z,14.99
2018-07-01T12:52:33.496Z,15.35
2018-07-01T12:58:17.059Z,15.91
2018-07-01T13:00:49.595Z,16.29
2018-07-01T13:03:20.595Z,15.51
2018-07-01T13:05:58.293Z,16.84
2018-07-01T13:14:28.343Z,15.80
2018-07-01T13:19:38.353Z,12.82
2018-07-01T13:25:34.754Z,11.57
2018-07-01T13:36:11.958Z,10.74
2018-07-01T13:41:48.300Z,10.92
2018-07-01T13:44:20.230Z,11.84
2018-07-01T13:47:13.704Z,12.03
2018-07-01T13:50:09.174Z,12.06
2018-07-01T13:55:34.002Z,11.53
2018-07-01T13:58:13.793Z,12.42
2018-07-01T14:09:40.790Z,11.30
2018-07-01T14:17:17.950Z,11.85
2018-07-01T14:19:54.497Z,11.24
2018-07-01T14:32:07.198Z,10.71
2018-07-01T14:34:49.400Z,10.43
2018-07-01T14:41:53.067Z,12.17
2018-07-01T14:44:23.283Z,11.62
2018-07-01T14:46:52.954Z,11.09
2018-07-01T14:49:26.678Z,10.80
2018-07-01T14:51:56.441Z,11.52
2018-07-01T14:54:26.714Z,11.77
2018-07-01T14:56:57.135Z,11.30
2018-07-01T14:59:28.245Z,10.61
2018-07-01T15:01:58.091Z,11.33
2018-07-01T15:04:38.063Z,12.11
2018-07-01T15:10:03.029Z,14.48
2018-07-01T15:12:33.085Z,15.22
2018-07-01T15:15:04.693Z,13.70
2018-07-01T15:17:34.687Z,13.27
2018-07-01T15:20:58.397Z,13.23
2018-07-01T15:23:29.738Z,12.75
2018-07-01T15:25:59.518Z,12.59
2018-07-01T15:28:29.165Z,12.79
2018-07-01T15:30:58.912Z,12.73
2018-07-01T15:33:30.798Z,12.31
2018-07-01T15:36:01.374Z,12.87
2018-07-01T15:38:31.416Z,14.83
2018-07-01T15:41:03.334Z,15.62
2018-07-01T15:43:44.855Z,18.85
2018-07-01T15:46:15.664Z,19.60
2018-07-01T15:48:48.217Z,19.68
2018-07-01T15:54:29.631Z,21.51
2018-07-01T16:00:20.854Z,21.75
2018-07-01T16:02:51.414Z,22.44
2018-07-01T16:05:22.002Z,22.82
2018-07-01T16:07:57.526Z,23.36
2018-07-01T16:10:27.668Z,22.32
2018-07-01T16:12:58.458Z,22.46
2018-07-01T16:15:30.125Z,22.36
2018-07-01T16:18:02.060Z,23.06
2018-07-01T16:20:32.424Z,22.62
2018-07-01T16:23:04.493Z,22.79
2018-07-01T16:25:37.796Z,22.49
2018-07-01T16:28:14.140Z,22.84
2018-07-01T16:30:44.635Z,23.78
2018-07-01T16:33:14.527Z,23.57
2018-07-01T16:35:48.293Z,23.07
2018-07-01T16:41:19.154Z,23.35
2018-07-01T16:44:04.563Z,23.35
2018-07-01T16:46:41.444Z,23.65
2018-07-01T16:49:14.151Z,23.92
2018-07-01T16:51:49.407Z,24.00
2018-07-01T16:54:19.685Z,24.10
2018-07-01T16:56:54.112Z,24.40
2018-07-01T16:59:23.778Z,23.85
2018-07-01T17:02:17.387Z,23.97
2018-07-01T17:04:47.069Z,25.26
2018-07-01T17:07:17.525Z,24.30
2018-07-01T17:09:59.666Z,24.72
2018-07-01T17:12:30.870Z,25.07
2018-07-01T17:15:01.063Z,25.51
2018-07-01T17:17:30.769Z,25.95
2018-07-01T17:20:00.589Z,26.62
2018-07-01T17:22:33.059Z,26.57
2018-07-01T17:25:03.659Z,26.38
2018-07-01T17:30:26.882Z,25.38
2018-07-01T17:33:02.159Z,25.25
2018-07-01T17:35:38.332Z,25.49
2018-07-01T17:38:08.766Z,26.29
2018-07-01T17:43:26.298Z,26.03
2018-07-01T17:46:11.741Z,25.99
2018-07-01T17:48:43.122Z,26.09
2018-07-01T17:51:16.166Z,25.77
2018-07-01T17:53:57.133Z,25.94
2018-07-01T17:56:38.910Z,26.23
2018-07-01T17:59:12.343Z,27.29
2018-07-01T18:01:42.771Z,26.23
2018-07-01T18:04:14.335Z,26.08
2018-07-01T18:06:50.895Z,26.21
2018-07-01T18:09:21.526Z,26.54
2018-07-01T18:11:51.852Z,26.92
2018-07-01T18:14:24.882Z,26.61
2018-07-01T18:16:55.011Z,26.93
2018-07-01T18:19:24.808Z,27.27
2018-07-01T18:22:18.303Z,26.87
2018-07-01T18:24:48.928Z,27.94
2018-07-01T18:26:54.552Z,28.62
2018-07-01T18:29:24.219Z,29.11
2018-07-01T18:31:54.007Z,29.92
2018-07-01T18:34:24.080Z,29.78
2018-07-01T18:37:04.860Z,30.18
2018-07-01T18:39:37.190Z,30.17
2018-07-01T18:42:13.159Z,30.29
2018-07-01T18:45:01.016Z,31.02
2018-07-01T18:47:31.411Z,31.92
2018-07-01T18:50:01.738Z,31.19
2018-07-01T18:55:25.770Z,32.53
2018-07-01T18:57:55.967Z,31.68
2018-07-01T19:00:26.176Z,31.41
2018-07-01T19:02:56.046Z,32.20
2018-07-01T19:05:27.968Z,32.57
2018-07-01T19:08:01.159Z,33.08
2018-07-01T19:10:36.909Z,32.28
2018-07-01T19:13:11.482Z,32.35
2018-07-01T19:15:41.865Z,32.20
2018-07-01T19:18:25.274Z,32.92
2018-07-01T19:20:55.249Z,33.30
2018-07-01T19:23:28.420Z,34.30
2018-07-01T19:25:58.310Z,33.90
2018-07-01T19:28:29.985Z,33.63
2018-07-01T19:31:18.404Z,33.20
2018-07-01T19:43:56.984Z,34.58
2018-07-01T19:46:31.162Z,35.59
2018-07-01T19:49:03.025Z,36.72
2018-07-01T19:51:34.270Z,36.25
2018-07-01T19:54:10.200Z,36.47
2018-07-01T19:56:41.981Z,36.47
2018-07-01T20:02:18.164Z,37.69
2018-07-01T20:05:11.607Z,37.48
2018-07-01T20:07:43.394Z,37.30
2018-07-01T20:13:05.738Z,37.92
2018-07-01T20:15:36.330Z,38.07
2018-07-01T20:18:16.963Z,37.66
2018-07-01T20:21:00.216Z,38.44
2018-07-01T20:23:34.423Z,38.66
2018-07-01T20:26:11.745Z,38.77
2018-07-01T20:29:19.941Z,40.98
2018-07-01T20:31:50.309Z,41.55
2018-07-01T20:34:23.148Z,40.95
2018-07-01T20:37:02.671Z,41.05
2018-07-01T20:39:35.047Z,40.80
2018-07-01T20:42:09.183Z,40.03
2018-07-01T20:44:58.369Z,41.62
2018-07-01T20:47:31.058Z,39.63
2018-07-01T20:50:10.248Z,41.12
2018-07-01T20:55:30.024Z,40.56
2018-07-01T20:58:02.104Z,39.62
2018-07-01T21:00:43.302Z,41.12
2018-07-01T21:03:19.407Z,42.48
2018-07-01T21:05:53.489Z,42.96
2018-07-01T21:08:38.584Z,42.81
2018-07-01T21:11:19.226Z,43.86
2018-07-01T21:13:56.803Z,43.95
2018-07-01T21:16:39.330Z,42.85
2018-07-01T21:19:14.563Z,44.26
2018-07-01T21:21:51.782Z,44.18
2018-07-01T21:24:29.205Z,44.34
2018-07-01T21:27:04.473Z,43.67
2018-07-01T21:29:38.472Z,44.33
2018-07-01T21:32:12.385Z,43.90
2018-07-01T21:34:54.203Z,44.85
2018-07-01T21:37:37.958Z,45.49
2018-07-01T21:40:10.983Z,46.39
2018-07-01T21:42:53.719Z,44.47
2018-07-01T21:48:41.632Z,44.81
2018-07-01T21:51:13.269Z,45.35
2018-07-01T21:53:43.750Z,45.74
2018-07-01T21:56:19.895Z,45.34
2018-07-01T22:02:09.607Z,46.60
2018-07-01T22:04:46.583Z,46.72
2018-07-01T22:07:22.390Z,46.66
2018-07-01T22:09:57.580Z,46.61
2018-07-01T22:13:04.703Z,47.25
2018-07-01T22:15:56.526Z,48.19
2018-07-01T22:18:44.585Z,48.43
2018-07-01T22:21:15.523Z,48.70
2018-07-01T22:24:06.577Z,48.25
2018-07-01T22:26:43.999Z,48.91
2018-07-01T22:29:35.358Z,48.62
2018-07-01T22:32:05.205Z,48.31
2018-07-01T22:34:34.964Z,49.71
2018-07-01T22:37:05.383Z,48.93
2018-07-01T22:39:34.916Z,49.58
2018-07-01T22:42:04.470Z,50.05
2018-07-01T22:44:34.374Z,50.16
2018-07-01T22:47:04.205Z,50.45
2018-07-01T22:50:04.203Z,50.81
2018-07-01T22:52:34.022Z,51.03
2018-07-01T22:55:04.013Z,51.53
2018-07-01T22:57:34.444Z,52.22
2018-07-01T23:00:04.182Z,52.71
2018-07-01T23:02:55.574Z,52.04
2018-07-01T23:05:26.179Z,52.37
2018-07-01T23:07:55.958Z,52.68
2018-07-01T23:10:26.677Z,53.44
2018-07-01T23:12:57.105Z,53.73
2018-07-01T23:15:27.178Z,53.61
2018-07-01T23:17:57.413Z,52.63
2018-07-01T23:20:28.923Z,53.77
2018-07-01T23:22:58.751Z,53.46
2018-07-01T23:25:28.725Z,53.85
2018-07-01T23:27:58.471Z,53.91
2018-07-01T23:30:28.271Z,53.85
2018-07-01T23:33:02.261Z,54.42
2018-07-01T23:35:34.777Z,54.58
2018-07-01T23:38:05.016Z,55.46
2018-07-01T23:40:34.985Z,55.13
2018-07-01T23:43:04.901Z,55.42
2018-07-01T23:45:36.019Z,55.84
2018-07-01T23:48:06.151Z,55.07
2018-07-01T23:50:36.579Z,55.65
2018-07-01T23:53:07.235Z,56.08
2018-07-01T23:55:37.270Z,55.46
2018-07-01T23:58:06.992Z,55.47
